createdAt,value
2018-06-05T00:00:37.970Z,6.87
2018-06-05T00:03:06.825Z,6.92
2018-06-05T00:05:35.643Z,6.75
2018-06-05T00:08:04.384Z,7.10
2018-06-05T00:10:33.152Z,7.10
2018-06-05T00:13:01.848Z,6.80
2018-06-05T00:15:31.464Z,7.55
2018-06-05T00:18:00.288Z,6.87
2018-06-05T00:20:29.179Z,7.50
2018-06-05T00:22:57.992Z,7.50
2018-06-05T00:25:26.790Z,8.25
2018-06-05T00:27:55.547Z,7.65
2018-06-05T00:30:25.505Z,7.70
2018-06-05T00:32:54.446Z,7.40
2018-06-05T00:35:23.174Z,7.40
2018-06-05T00:37:52.112Z,7.33
2018-06-05T00:40:21.178Z,7.37
2018-06-05T00:42:50.095Z,7.12
2018-06-05T00:45:19.209Z,7.45
2018-06-05T00:47:47.944Z,7.75
2018-06-05T00:50:16.839Z,7.40
2018-06-05T00:52:45.558Z,7.40
2018-06-05T00:55:14.275Z,7.53
2018-06-05T00:57:42.995Z,7.80
2018-06-05T01:00:11.652Z,8.03
2018-06-05T01:02:40.275Z,8.05
2018-06-05T01:05:08.993Z,8.20
2018-06-05T01:07:37.695Z,7.80
2018-06-05T01:10:06.577Z,7.95
2018-06-05T01:12:35.341Z,7.67
2018-06-05T01:15:04.204Z,8.40
2018-06-05T01:17:32.912Z,8.25
2018-06-05T01:20:01.591Z,7.80
2018-06-05T01:22:30.710Z,8.10
2018-06-05T01:25:00.524Z,8.03
2018-06-05T01:27:29.316Z,7.85
2018-06-05T01:29:58.040Z,8.25
2018-06-05T01:32:26.855Z,8.35
2018-06-05T01:34:55.491Z,8.20
2018-06-05T01:37:24.338Z,8.25
2018-06-05T01:39:53.209Z,8.57
2018-06-05T01:42:22.048Z,8.35
2018-06-05T01:44:51.032Z,7.85
2018-06-05T01:47:19.781Z,7.90
2018-06-05T01:49:48.704Z,9.10
2018-06-05T01:52:17.411Z,8.05
2018-06-05T01:54:46.131Z,8.28
2018-06-05T01:57:14.959Z,8.50
2018-06-05T01:59:43.839Z,8.43
2018-06-05T02:02:12.707Z,8.78
2018-06-05T02:04:41.442Z,8.75
2018-06-05T02:07:10.118Z,8.33
2018-06-05T02:09:39.086Z,9.18
2018-06-05T02:12:07.856Z,8.40
2018-06-05T02:14:36.680Z,8.88
2018-06-05T02:17:05.510Z,8.90
2018-06-05T02:19:34.323Z,8.70
2018-06-05T02:22:03.065Z,8.73
2018-06-05T02:24:31.826Z,9.15
2018-06-05T02:27:00.658Z,8.75
2018-06-05T02:29:29.486Z,8.20
2018-06-05T02:31:58.312Z,8.78
2018-06-05T02:34:27.146Z,8.87
2018-06-05T02:36:57.031Z,8.85
2018-06-05T02:39:26.352Z,8.53
2018-06-05T02:41:55.018Z,9.23
2018-06-05T02:44:23.868Z,9.18
2018-06-05T02:46:52.628Z,9.15
2018-06-05T02:49:21.012Z,9.30
2018-06-05T02:51:49.833Z,9.68
2018-06-05T02:54:18.582Z,9.60
2018-06-05T02:56:47.484Z,9.65
2018-06-05T02:59:16.219Z,9.93
2018-06-05T03:01:44.947Z,9.63
2018-06-05T03:04:14.192Z,9.57
2018-06-05T03:06:42.914Z,9.40
2018-06-05T03:09:11.655Z,9.85
2018-06-05T03:11:40.505Z,10.05
2018-06-05T03:14:09.450Z,39.63
2018-06-05T03:16:38.234Z,9.68
2018-06-05T03:19:07.072Z,10.27
2018-06-05T03:21:35.760Z,10.23
2018-06-05T03:24:04.602Z,10.18
2018-06-05T03:26:33.489Z,9.73
2018-06-05T03:29:02.386Z,11.43
2018-06-05T03:31:31.207Z,11.45
2018-06-05T03:33:59.935Z,10.53
2018-06-05T03:36:28.393Z,11.28
2018-06-05T03:38:57.022Z,12.63
2018-06-05T03:41:25.459Z,10.40
2018-06-05T03:43:54.266Z,11.10
2018-06-05T03:46:23.064Z,11.00
2018-06-05T03:48:52.592Z,10.85
2018-06-05T03:51:21.388Z,11.10
2018-06-05T03:53:50.127Z,13.10
2018-06-05T03:56:19.069Z,18.20
2018-06-05T03:58:47.912Z,12.07
2018-06-05T04:01:16.711Z,13.08
2018-06-05T04:03:45.644Z,12.43
2018-06-05T04:06:14.424Z,12.63
2018-06-05T04:08:42.902Z,12.30
2018-06-05T04:11:11.709Z,12.93
2018-06-05T04:13:40.523Z,13.00
2018-06-05T04:16:09.848Z,14.18
2018-06-05T04:18:38.857Z,15.55
2018-06-05T04:21:07.542Z,15.30
2018-06-05T04:23:36.337Z,17.00
2018-06-05T04:26:05.172Z,17.95
2018-06-05T04:28:33.979Z,16.32
2018-06-05T04:31:02.872Z,16.02
2018-06-05T04:33:31.593Z,14.28
2018-06-05T04:36:00.504Z,15.10
2018-06-05T04:38:29.343Z,14.38
2018-06-05T04:40:58.229Z,13.68
2018-06-05T04:43:27.234Z,14.15
2018-06-05T04:45:56.022Z,13.43
2018-06-05T04:48:24.933Z,13.63
2018-06-05T04:50:53.684Z,13.85
2018-06-05T04:53:22.524Z,14.55
2018-06-05T04:55:51.382Z,15.05
2018-06-05T04:58:20.236Z,14.67
2018-06-05T05:00:50.145Z,15.32
2018-06-05T05:03:19.258Z,14.83
2018-06-05T05:05:47.936Z,16.27
2018-06-05T05:08:16.916Z,18.35
2018-06-05T05:10:45.881Z,15.75
2018-06-05T05:13:15.032Z,17.17
2018-06-05T05:15:44.646Z,17.77
2018-06-05T05:18:13.779Z,17.73
2018-06-05T05:20:42.604Z,19.82
2018-06-05T05:23:11.324Z,18.90
2018-06-05T05:25:40.067Z,21.15
2018-06-05T05:28:08.909Z,20.30
2018-06-05T05:30:37.833Z,21.20
2018-06-05T05:33:08.298Z,20.62
2018-06-05T05:35:37.043Z,21.00
2018-06-05T05:38:05.816Z,19.25
2018-06-05T05:40:34.473Z,20.85
2018-06-05T05:43:03.385Z,20.30
2018-06-05T05:45:32.464Z,23.35
2018-06-05T05:48:01.467Z,22.00
2018-06-05T05:50:30.560Z,21.42
2018-06-05T05:52:59.262Z,21.12
2018-06-05T05:55:27.637Z,26.90
2018-06-05T05:57:56.459Z,19.87
2018-06-05T06:00:25.395Z,21.50
2018-06-05T06:02:54.395Z,23.47
2018-06-05T06:05:23.239Z,21.00
2018-06-05T06:07:52.275Z,22.87
2018-06-05T06:10:21.076Z,20.55
2018-06-05T06:12:52.969Z,24.03
2018-06-05T06:15:22.472Z,21.55
2018-06-05T06:17:51.991Z,22.27
2018-06-05T06:20:21.941Z,21.40
2018-06-05T06:22:51.761Z,22.58
2018-06-05T06:25:21.996Z,20.65
2018-06-05T06:27:51.231Z,21.77
2018-06-05T06:30:28.241Z,18.73
2018-06-05T06:33:08.039Z,18.55
2018-06-05T06:35:37.507Z,20.97
2018-06-05T06:38:06.335Z,16.95
2018-06-05T06:40:35.058Z,15.85
2018-06-05T06:43:04.704Z,16.05
2018-06-05T06:45:33.468Z,16.20
2018-06-05T06:48:02.256Z,16.40
2018-06-05T06:50:31.394Z,16.27
2018-06-05T06:53:00.588Z,16.37
2018-06-05T06:55:29.643Z,18.07
2018-06-05T06:57:58.445Z,16.85
2018-06-05T07:00:28.142Z,18.35
2018-06-05T07:03:00.403Z,18.53
2018-06-05T07:05:30.076Z,16.55
2018-06-05T07:07:59.734Z,18.97
2018-06-05T07:10:28.664Z,16.30
2018-06-05T07:12:57.921Z,17.12
2018-06-05T07:15:27.210Z,17.65
2018-06-05T07:17:56.063Z,17.90
2018-06-05T07:20:25.301Z,20.95
2018-06-05T07:22:54.397Z,20.77
2018-06-05T07:25:23.206Z,20.23
2018-06-05T07:27:52.139Z,23.02
2018-06-05T07:30:22.171Z,27.47
2018-06-05T07:32:50.955Z,26.35
2018-06-05T07:35:19.862Z,27.95
2018-06-05T07:37:48.582Z,28.30
2018-06-05T07:40:17.596Z,32.78
2018-06-05T07:42:46.294Z,30.30
2018-06-05T07:45:16.296Z,29.57
2018-06-05T07:47:45.496Z,32.95
2018-06-05T07:50:14.675Z,30.68
2018-06-05T07:52:43.511Z,28.85
2018-06-05T07:55:12.219Z,21.45
2018-06-05T07:57:41.634Z,21.68
2018-06-05T08:00:10.581Z,15.80
2018-06-05T08:02:40.461Z,14.63
2018-06-05T08:05:12.285Z,15.38
2018-06-05T08:07:41.903Z,14.63
2018-06-05T08:10:11.598Z,15.72
2018-06-05T08:12:40.382Z,14.90
2018-06-05T08:15:10.231Z,15.93
2018-06-05T08:17:47.554Z,15.55
2018-06-05T08:20:19.951Z,15.75
2018-06-05T08:22:53.221Z,14.97
2018-06-05T08:25:22.186Z,15.03
2018-06-05T08:27:50.892Z,15.25
2018-06-05T08:30:19.960Z,14.53
2018-06-05T08:32:48.414Z,13.72
2018-06-05T08:35:17.307Z,14.50
2018-06-05T08:37:45.883Z,15.20
2018-06-05T08:40:14.902Z,15.00
2018-06-05T08:42:43.686Z,13.83
2018-06-05T08:45:12.464Z,12.97
2018-06-05T08:47:41.534Z,13.18
2018-06-05T08:50:10.560Z,13.95
2018-06-05T08:52:39.032Z,13.73
2018-06-05T08:55:08.472Z,30.23
2018-06-05T08:57:37.512Z,13.88
2018-06-05T09:00:06.437Z,12.53
2018-06-05T09:02:35.282Z,13.08
2018-06-05T09:05:04.162Z,13.60
2018-06-05T09:07:32.763Z,13.00
2018-06-05T09:10:02.205Z,14.03
2018-06-05T09:12:30.901Z,14.75
2018-06-05T09:14:59.613Z,13.38
2018-06-05T09:17:28.074Z,13.47
2018-06-05T09:19:56.711Z,15.83
2018-06-05T09:22:25.548Z,13.60
2018-06-05T09:24:54.172Z,14.40
2018-06-05T09:27:22.918Z,17.60
2018-06-05T09:29:51.609Z,14.35
2018-06-05T09:32:20.590Z,15.43
2018-06-05T09:34:49.238Z,16.12
2018-06-05T09:37:19.045Z,12.83
2018-06-05T09:39:48.127Z,13.78
2018-06-05T09:42:17.075Z,14.70
2018-06-05T09:44:46.260Z,13.45
2018-06-05T09:47:14.993Z,15.85
2018-06-05T09:49:43.788Z,17.10
2018-06-05T09:52:12.657Z,13.45
2018-06-05T09:54:41.687Z,12.17
2018-06-05T09:57:10.472Z,16.95
2018-06-05T09:59:39.246Z,21.43
2018-06-05T10:02:40.225Z,17.05
2018-06-05T10:05:10.006Z,13.30
2018-06-05T10:07:42.509Z,16.27
2018-06-05T10:10:13.412Z,13.80
2018-06-05T10:12:42.110Z,12.40
2018-06-05T10:15:11.055Z,20.47
2018-06-05T10:17:40.169Z,17.98
2018-06-05T10:20:08.922Z,15.85
2018-06-05T10:22:40.145Z,14.47
2018-06-05T10:25:08.942Z,14.10
2018-06-05T10:28:11.271Z,14.50
2018-06-05T10:30:53.347Z,13.48
2018-06-05T10:33:45.293Z,13.23
2018-06-05T10:36:23.573Z,13.07
2018-06-05T10:38:52.656Z,11.70
2018-06-05T10:41:22.292Z,12.58
2018-06-05T10:43:52.593Z,13.00
2018-06-05T10:46:24.278Z,13.60
2018-06-05T10:48:53.754Z,14.43
2018-06-05T10:51:23.038Z,14.43
2018-06-05T10:53:53.695Z,12.57
2018-06-05T10:56:23.526Z,12.53
2018-06-05T10:58:52.489Z,13.65
2018-06-05T11:01:21.239Z,17.35
2018-06-05T11:03:50.693Z,9.95
2018-06-05T11:06:19.760Z,14.95
2018-06-05T11:08:48.578Z,10.78
2018-06-05T11:11:17.416Z,10.60
2018-06-05T11:13:46.329Z,14.25
2018-06-05T11:16:15.013Z,12.67
2018-06-05T11:18:43.722Z,6.70
2018-06-05T11:21:18.193Z,12.87
2018-06-05T11:23:47.194Z,7.20
2018-06-05T11:26:16.697Z,9.10
2018-06-05T11:28:45.585Z,6.62
2018-06-05T11:31:14.542Z,6.17
2018-06-05T11:33:43.534Z,8.07
2018-06-05T11:36:12.273Z,12.00
2018-06-05T11:38:41.215Z,12.95
2018-06-05T11:41:09.969Z,15.28
2018-06-05T11:43:39.324Z,12.70
2018-06-05T11:46:08.031Z,14.65
2018-06-05T11:48:37.087Z,13.65
2018-06-05T11:51:16.444Z,14.28
2018-06-05T11:53:45.220Z,14.27
2018-06-05T11:56:14.455Z,19.17
2018-06-05T11:58:43.550Z,15.60
2018-06-05T12:01:12.725Z,17.27
2018-06-05T12:03:42.280Z,16.70
2018-06-05T12:06:10.888Z,17.23
2018-06-05T12:08:39.844Z,17.50
2018-06-05T12:11:08.718Z,17.62
2018-06-05T12:13:38.228Z,15.08
2018-06-05T12:16:07.217Z,16.05
2018-06-05T12:18:36.255Z,15.47
2018-06-05T12:21:07.612Z,18.60
2018-06-05T12:23:36.596Z,14.63
2018-06-05T12:26:05.289Z,15.07
2018-06-05T12:28:34.747Z,17.30
2018-06-05T12:31:04.171Z,16.37
2018-06-05T12:33:32.934Z,16.73
2018-06-05T12:36:02.948Z,17.07
2018-06-05T12:38:32.331Z,17.77
2018-06-05T12:41:01.781Z,16.07
2018-06-05T12:43:50.597Z,17.17
2018-06-05T12:46:27.673Z,16.75
2018-06-05T12:49:05.636Z,16.57
2018-06-05T12:51:34.442Z,15.15
2018-06-05T12:54:03.550Z,14.37
2018-06-05T12:56:32.657Z,14.47
2018-06-05T13:02:06.518Z,13.60
2018-06-05T13:04:36.735Z,14.10
2018-06-05T13:07:06.247Z,18.40
2018-06-05T13:09:35.988Z,17.73
2018-06-05T13:12:05.058Z,15.80
2018-06-05T13:14:34.254Z,17.75
2018-06-05T13:17:03.395Z,17.75
2018-06-05T13:19:34.938Z,24.47
2018-06-05T13:22:05.094Z,14.20
2018-06-05T13:24:34.756Z,14.07
2018-06-05T13:27:05.639Z,17.87
2018-06-05T13:29:34.841Z,14.33
2018-06-05T13:32:04.270Z,17.60
2018-06-05T13:34:33.049Z,14.18
2018-06-05T13:37:07.344Z,13.83
2018-06-05T13:39:43.972Z,15.18
2018-06-05T13:42:13.666Z,15.10
2018-06-05T13:44:43.154Z,14.03
2018-06-05T13:47:19.208Z,13.22
2018-06-05T13:49:49.200Z,14.53
2018-06-05T13:52:18.276Z,14.87
2018-06-05T13:54:47.339Z,11.22
2018-06-05T13:57:16.425Z,13.90
2018-06-05T13:59:45.478Z,16.70
2018-06-05T14:02:17.869Z,11.63
2018-06-05T14:04:47.770Z,9.83
2018-06-05T14:07:16.545Z,11.85
2018-06-05T14:09:45.643Z,11.40
2018-06-05T14:12:15.280Z,11.40
2018-06-05T14:14:44.132Z,12.45
2018-06-05T14:17:12.982Z,12.10
2018-06-05T14:19:41.893Z,11.38
2018-06-05T14:22:10.886Z,7.65
2018-06-05T14:24:40.242Z,7.70
2018-06-05T14:27:09.093Z,7.27
2018-06-05T14:29:37.986Z,8.13
2018-06-05T14:32:06.860Z,8.38
2018-06-05T14:34:35.835Z,9.90
2018-06-05T14:37:04.857Z,8.13
2018-06-05T14:41:02.932Z,7.85
2018-06-05T14:43:32.030Z,7.20
2018-06-05T14:46:08.258Z,7.80
2018-06-05T14:48:44.077Z,7.30
2018-06-05T14:51:13.356Z,6.87
2018-06-05T14:53:42.490Z,7.22
2018-06-05T14:56:12.223Z,7.53
2018-06-05T14:58:49.494Z,7.78
2018-06-05T15:01:25.268Z,9.63
2018-06-05T15:04:00.819Z,8.20
2018-06-05T15:06:29.899Z,8.10
2018-06-05T15:08:58.951Z,8.60
2018-06-05T15:11:27.706Z,8.88
2018-06-05T15:13:56.539Z,9.10
2018-06-05T15:16:25.411Z,8.63
2018-06-05T15:18:54.435Z,9.13
2018-06-05T15:21:23.519Z,9.78
2018-06-05T15:23:52.473Z,11.43
2018-06-05T15:26:21.356Z,8.98
2018-06-05T15:28:50.898Z,8.75
2018-06-05T15:31:19.916Z,8.75
2018-06-05T15:33:48.840Z,9.50
2018-06-05T15:36:17.782Z,8.70
2018-06-05T15:38:47.579Z,11.83
2018-06-05T15:41:16.641Z,9.63
2018-06-05T15:43:46.158Z,9.78
2018-06-05T15:46:15.099Z,11.45
2018-06-05T15:48:43.936Z,10.10
2018-06-05T15:51:17.681Z,11.63
2018-06-05T15:53:46.652Z,12.40
2018-06-05T15:56:15.489Z,9.80
2018-06-05T15:58:44.274Z,9.40
2018-06-05T16:01:13.201Z,10.07
2018-06-05T16:03:42.065Z,12.63
2018-06-05T16:06:10.850Z,9.90
2018-06-05T16:08:39.662Z,9.98
2018-06-05T16:11:08.724Z,10.23
2018-06-05T16:13:37.544Z,8.90
2018-06-05T16:16:07.014Z,11.63
2018-06-05T16:18:35.986Z,14.47
2018-06-05T16:21:05.504Z,10.53
2018-06-05T16:23:34.915Z,12.05
2018-06-05T16:26:03.897Z,10.78
2018-06-05T16:28:32.949Z,12.83
2018-06-05T16:31:01.819Z,14.15
2018-06-05T16:33:30.530Z,13.50
2018-06-05T16:35:59.483Z,14.95
2018-06-05T16:38:28.209Z,11.95
2018-06-05T16:40:57.928Z,12.98
2018-06-05T16:43:26.766Z,12.40
2018-06-05T16:45:55.697Z,11.75
2018-06-05T16:48:25.428Z,13.10
2018-06-05T16:50:54.197Z,13.95
2018-06-05T16:53:23.042Z,14.73
2018-06-05T16:55:51.954Z,14.98
2018-06-05T16:58:21.691Z,14.10
2018-06-05T17:00:50.502Z,13.70
2018-06-05T17:03:19.260Z,13.80
2018-06-05T17:05:48.114Z,14.43
2018-06-05T17:08:21.971Z,13.58
2018-06-05T17:10:50.891Z,14.10
2018-06-05T17:13:19.718Z,14.25
2018-06-05T17:15:48.467Z,13.10
2018-06-05T17:18:17.259Z,11.95
2018-06-05T17:20:46.455Z,14.33
2018-06-05T17:23:15.254Z,12.37
2018-06-05T17:25:44.541Z,12.55
2018-06-05T17:28:13.420Z,11.33
2018-06-05T17:30:43.559Z,12.63
2018-06-05T17:33:12.678Z,11.23
2018-06-05T17:35:41.457Z,12.60
2018-06-05T17:38:10.287Z,14.15
2018-06-05T17:40:39.044Z,12.77
2018-06-05T17:43:07.973Z,12.03
2018-06-05T17:45:36.886Z,11.88
2018-06-05T17:48:05.961Z,12.50
2018-06-05T17:50:34.986Z,14.60
2018-06-05T17:53:04.087Z,13.48
2018-06-05T17:55:32.959Z,16.20
2018-06-05T17:58:02.098Z,14.50
2018-06-05T18:00:32.102Z,14.65
2018-06-05T18:03:00.964Z,12.68
2018-06-05T18:05:29.709Z,12.63
2018-06-05T18:07:58.515Z,14.30
2018-06-05T18:10:27.188Z,14.13
2018-06-05T18:12:56.029Z,12.63
2018-06-05T18:15:24.973Z,12.20
2018-06-05T18:17:53.943Z,12.63
2018-06-05T18:20:22.870Z,12.20
2018-06-05T18:22:51.623Z,13.62
2018-06-05T18:25:20.462Z,12.73
2018-06-05T18:27:49.380Z,12.98
2018-06-05T18:30:18.481Z,13.07
2018-06-05T18:32:47.326Z,11.15
2018-06-05T18:35:16.039Z,12.60
2018-06-05T18:37:44.737Z,11.37
2018-06-05T18:40:13.454Z,11.68
2018-06-05T18:42:42.297Z,10.63
2018-06-05T18:45:11.040Z,10.78
2018-06-05T18:47:39.790Z,14.97
2018-06-05T18:50:08.744Z,10.50
2018-06-05T18:52:37.553Z,9.63
2018-06-05T18:55:06.847Z,11.45
2018-06-05T18:57:35.923Z,11.63
2018-06-05T19:00:05.347Z,10.25
2018-06-05T19:02:34.311Z,10.70
2018-06-05T19:05:03.009Z,10.70
2018-06-05T19:07:32.018Z,11.13
2018-06-05T19:10:01.718Z,12.50
2018-06-05T19:12:30.646Z,11.22
2018-06-05T19:14:59.624Z,10.63
2018-06-05T19:17:28.353Z,11.50
2018-06-05T19:21:26.476Z,36.80
2018-06-05T19:24:02.286Z,30.07
2018-06-05T19:26:37.407Z,10.98
2018-06-05T19:29:07.975Z,12.60
2018-06-05T19:31:36.841Z,10.93
2018-06-05T19:34:05.565Z,10.58
2018-06-05T19:36:34.383Z,11.73
2018-06-05T19:39:03.318Z,13.45
2018-06-05T19:41:32.281Z,12.03
2018-06-05T19:44:01.343Z,11.97
2018-06-05T19:46:30.685Z,11.67
2018-06-05T19:48:59.464Z,12.90
2018-06-05T19:51:34.581Z,12.78
2018-06-05T19:54:10.477Z,14.10
2018-06-05T19:56:39.641Z,14.33
2018-06-05T19:59:08.407Z,13.67
2018-06-05T20:01:37.421Z,13.20
2018-06-05T20:04:07.150Z,15.05
2018-06-05T20:06:36.014Z,14.77
2018-06-05T20:09:07.182Z,18.48
2018-06-05T20:11:35.930Z,20.00
2018-06-05T20:14:04.784Z,15.60
2018-06-05T20:16:34.580Z,24.17
2018-06-05T20:19:03.412Z,21.73
2018-06-05T20:21:32.123Z,20.77
2018-06-05T20:24:01.260Z,21.50
2018-06-05T20:26:30.491Z,20.30
2018-06-05T20:29:00.143Z,18.63
2018-06-05T20:31:29.635Z,21.42
2018-06-05T20:33:58.627Z,24.18
2018-06-05T20:36:27.375Z,21.62
2018-06-05T20:38:56.102Z,20.77
2018-06-05T20:41:25.423Z,20.75
2018-06-05T20:43:54.851Z,18.87
2018-06-05T20:46:23.559Z,20.17
2018-06-05T20:48:53.284Z,19.57
2018-06-05T20:51:21.990Z,20.05
2018-06-05T20:53:50.716Z,18.52
2018-06-05T20:56:19.824Z,18.95
2018-06-05T20:58:48.636Z,19.40
2018-06-05T21:01:17.579Z,18.40
2018-06-05T21:03:46.328Z,18.98
2018-06-05T21:06:15.225Z,20.00
2018-06-05T21:08:43.922Z,23.53
2018-06-05T21:11:12.771Z,20.32
2018-06-05T21:13:41.459Z,20.20
2018-06-05T21:16:10.762Z,21.20
2018-06-05T21:18:39.524Z,20.10
2018-06-05T21:21:08.976Z,20.70
2018-06-05T21:23:38.476Z,17.40
2018-06-05T21:26:07.720Z,18.30
2018-06-05T21:28:36.968Z,18.37
2018-06-05T21:31:05.926Z,19.20
2018-06-05T21:33:34.864Z,18.42
2018-06-05T21:36:03.675Z,20.20
2018-06-05T21:38:32.512Z,19.75
2018-06-05T21:41:01.247Z,18.00
2018-06-05T21:43:30.090Z,19.07
2018-06-05T21:45:58.878Z,18.75
2018-06-05T21:48:27.873Z,18.23
2018-06-05T21:50:56.825Z,17.67
2018-06-05T21:53:25.624Z,18.15
2018-06-05T21:55:54.692Z,17.92
2018-06-05T21:58:23.397Z,17.15
2018-06-05T22:00:52.235Z,16.85
2018-06-05T22:03:21.786Z,16.13
2018-06-05T22:05:50.463Z,15.13
2018-06-05T22:08:19.226Z,15.47
2018-06-05T22:10:48.062Z,15.58
2018-06-05T22:13:16.867Z,15.72
2018-06-05T22:15:45.609Z,16.23
2018-06-05T22:18:14.274Z,15.53
2018-06-05T22:20:43.163Z,16.32
2018-06-05T22:23:12.116Z,17.00
2018-06-05T22:25:40.863Z,16.87
2018-06-05T22:28:09.746Z,16.50
2018-06-05T22:30:38.620Z,17.23
2018-06-05T22:33:07.327Z,17.90
2018-06-05T22:35:36.173Z,18.13
2018-06-05T22:38:05.736Z,16.73
2018-06-05T22:40:34.541Z,17.40
2018-06-05T22:43:03.193Z,16.87
2018-06-05T22:45:32.141Z,17.30
2018-06-05T22:48:00.924Z,17.37
2018-06-05T22:50:30.386Z,16.87
2018-06-05T22:52:59.224Z,16.05
2018-06-05T22:55:28.620Z,16.60
2018-06-05T22:57:57.296Z,16.02
2018-06-05T23:00:32.323Z,16.55
2018-06-05T23:03:01.290Z,16.67
2018-06-05T23:05:30.161Z,17.25
2018-06-05T23:07:59.034Z,18.00
2018-06-05T23:10:27.908Z,17.32
2018-06-05T23:12:56.695Z,17.15
2018-06-05T23:15:26.102Z,17.10
2018-06-05T23:17:54.961Z,17.07
2018-06-05T23:20:23.614Z,17.33
2018-06-05T23:22:52.234Z,18.05
2018-06-05T23:25:21.030Z,17.60
2018-06-05T23:27:49.861Z,17.73
2018-06-05T23:30:18.688Z,16.75
2018-06-05T23:32:47.384Z,17.07
2018-06-05T23:35:16.079Z,16.17
2018-06-05T23:37:44.774Z,15.32
2018-06-05T23:40:13.485Z,16.10
2018-06-05T23:42:42.367Z,16.85
2018-06-05T23:45:11.037Z,18.45
2018-06-05T23:47:39.760Z,16.90
2018-06-05T23:50:08.624Z,17.02
2018-06-05T23:52:37.371Z,18.30
2018-06-05T23:55:06.395Z,17.40
2018-06-05T23:57:35.072Z,16.75
